Kang Sheng — VRXL3 — position and weather

sailwx.info

Track history (hours):
 
Tides and Currents Weather Stations Pressure Air Temp Water Temp Dewpoint Dewpoint Depression Visibility Wind Speed Wind Dir Waves Ship Positions

Kang Sheng

Last reported at 2016-Aug-04 00:21 UTC. Time now 2016-Aug-24 21:27 UTC.
Position S 29°37' E 031°53'.
Warning: this ship's position is 20 days out of date.

Length 190 m; draft 12.3 m.

Type: Cargo ship. MMSI: 477977000.

Date/timePositionNaut miles runAvg speedWind from/ knotsBaromVisibWave heightAir tempDewpointWater temp
2016-Aug-04 00:21S 29°37' E 031°53'7 8.7
2016-Aug-03 23:33S 29°39' E 031°46'9 8.7
2016-Aug-03 22:33S 29°42' E 031°36'9 8.6
2016-Aug-03 21:33S 29°45' E 031°27'9 8.9
2016-Aug-03 20:33S 29°48' E 031°17'1010.1
2016-Aug-03 19:33S 29°51' E 031°06'4 3.4
2016-Aug-03 18:31S 29°52' E 031°02'0 0.0
2016-Aug-03 17:31S 29°52' E 031°02'0 0.0
2016-Aug-03 16:31S 29°52' E 031°02'0 0.0
2016-Aug-03 15:31S 29°52' E 031°02'0 0.0
2016-Aug-03 14:31S 29°52' E 031°02'0 0.0
2016-Aug-03 13:31S 29°52' E 031°02'0 0.0
2016-Aug-03 12:31S 29°52' E 031°02'0 0.0
2016-Aug-03 11:31S 29°52' E 031°02'0 0.0
2016-Aug-03 10:31S 29°52' E 031°02'0 0.0
2016-Aug-03 09:31S 29°52' E 031°02'0 0.0
2016-Aug-03 08:28S 29°52' E 031°02'0 0.0
2016-Aug-03 07:31S 29°52' E 031°02'0 0.0
2016-Aug-03 06:31S 29°52' E 031°02'0 0.0
2016-Aug-03 04:31S 29°52' E 031°02'0 0.0
2016-Aug-03 03:31S 29°52' E 031°02'0 0.0
2016-Aug-03 02:31S 29°52' E 031°02'0 0.0
2016-Aug-03 01:31S 29°52' E 031°02'0 0.0
2016-Aug-03 00:31S 29°52' E 031°02'0 0.0
2016-Aug-02 23:33S 29°52' E 031°02'4 3.6
2016-Aug-02 22:33S 29°50' E 031°06'2 1.9
2016-Aug-02 21:33S 29°48' E 031°06'4 3.5
2016-Aug-02 20:33S 29°48' E 031°10'0 0.2
2016-Aug-02 19:31S 29°48' E 031°10'0 0.0
2016-Aug-02 18:31S 29°48' E 031°10'0 0.0
2016-Aug-02 17:31S 29°48' E 031°10'0 0.0
2016-Aug-02 16:31S 29°48' E 031°10'0 0.3
2016-Aug-02 15:33S 29°48' E 031°10'4 4.1
2016-Aug-02 14:33S 29°52' E 031°09'9 9.3
2016-Aug-02 13:33S 30°00' E 031°04'1111.4
2016-Aug-02 12:33S 30°10' E 030°57'1010.3
2016-Aug-02 11:32S 30°19' E 030°51'  
Track history (hours):
 
Tides and Currents Weather Stations Pressure Air Temp Water Temp Dewpoint Dewpoint Depression Visibility Wind Speed Wind Dir Waves Ship Positions

Kang Sheng

Last reported at 2016-Aug-04 00:21 UTC. Time now 2016-Aug-24 21:27 UTC.
Position S 29°37' E 031°53'.
Warning: this ship's position is 20 days out of date.

Length 190 m; draft 12.3 m.

Type: Cargo ship. MMSI: 477977000.

Date/timePositionNaut miles runAvg speedWind from/ knotsBaromVisibWave heightAir tempDewpointWater temp
2016-Aug-04 00:21S 29°37' E 031°53'7 8.7
2016-Aug-03 23:33S 29°39' E 031°46'9 8.7
2016-Aug-03 22:33S 29°42' E 031°36'9 8.6
2016-Aug-03 21:33S 29°45' E 031°27'9 8.9
2016-Aug-03 20:33S 29°48' E 031°17'1010.1
2016-Aug-03 19:33S 29°51' E 031°06'4 3.4
2016-Aug-03 18:31S 29°52' E 031°02'0 0.0
2016-Aug-03 17:31S 29°52' E 031°02'0 0.0
2016-Aug-03 16:31S 29°52' E 031°02'0 0.0
2016-Aug-03 15:31S 29°52' E 031°02'0 0.0
2016-Aug-03 14:31S 29°52' E 031°02'0 0.0
2016-Aug-03 13:31S 29°52' E 031°02'0 0.0
2016-Aug-03 12:31S 29°52' E 031°02'0 0.0
2016-Aug-03 11:31S 29°52' E 031°02'0 0.0
2016-Aug-03 10:31S 29°52' E 031°02'0 0.0
2016-Aug-03 09:31S 29°52' E 031°02'0 0.0
2016-Aug-03 08:28S 29°52' E 031°02'0 0.0
2016-Aug-03 07:31S 29°52' E 031°02'0 0.0
2016-Aug-03 06:31S 29°52' E 031°02'0 0.0
2016-Aug-03 04:31S 29°52' E 031°02'0 0.0
2016-Aug-03 03:31S 29°52' E 031°02'0 0.0
2016-Aug-03 02:31S 29°52' E 031°02'0 0.0
2016-Aug-03 01:31S 29°52' E 031°02'0 0.0
2016-Aug-03 00:31S 29°52' E 031°02'0 0.0
2016-Aug-02 23:33S 29°52' E 031°02'4 3.6
2016-Aug-02 22:33S 29°50' E 031°06'2 1.9
2016-Aug-02 21:33S 29°48' E 031°06'4 3.5
2016-Aug-02 20:33S 29°48' E 031°10'0 0.2
2016-Aug-02 19:31S 29°48' E 031°10'0 0.0
2016-Aug-02 18:31S 29°48' E 031°10'0 0.0
2016-Aug-02 17:31S 29°48' E 031°10'0 0.0
2016-Aug-02 16:31S 29°48' E 031°10'0 0.3
2016-Aug-02 15:33S 29°48' E 031°10'4 4.1
2016-Aug-02 14:33S 29°52' E 031°09'9 9.3
2016-Aug-02 13:33S 30°00' E 031°04'1111.4
2016-Aug-02 12:33S 30°10' E 030°57'1010.3
2016-Aug-02 11:32S 30°19' E 030°51'  

Dump ship's entire track history